sensor_id;sensor_type;location;lat;lon;timestamp;P1;P2;P0
62778;PMS7003;48821;48.796;2.396;2023-08-21T00:00:05;6.33;3.67;3.00
62778;PMS7003;48821;48.796;2.396;2023-08-21T00:01:18;0.83;0.83;0.50
62778;PMS7003;48821;48.796;2.396;2023-08-21T00:02:29;1.67;1.00;1.00
62778;PMS7003;48821;48.796;2.396;2023-08-21T00:03:40;3.00;2.00;1.33
62778;PMS7003;48821;48.796;2.396;2023-08-21T00:04:51;3.00;1.00;1.00
62778;PMS7003;48821;48.796;2.396;2023-08-21T00:06:05;2.50;2.33;2.00
62778;PMS7003;48821;48.796;2.396;2023-08-21T00:07:18;1.00;1.00;1.00
62778;PMS7003;48821;48.796;2.396;2023-08-21T00:08:28;2.33;2.33;2.33
62778;PMS7003;48821;48.796;2.396;2023-08-21T00:09:39;1.33;1.33;1.33
62778;PMS7003;48821;48.796;2.396;2023-08-21T00:10:51;3.50;1.25;1.00
62778;PMS7003;48821;48.796;2.396;2023-08-21T00:12:04;1.67;0.00;0.00
62778;PMS7003;48821;48.796;2.396;2023-08-21T00:13:18;2.00;2.00;1.00
62778;PMS7003;48821;48.796;2.396;2023-08-21T00:14:29;1.67;1.67;1.00
62778;PMS7003;48821;48.796;2.396;2023-08-21T00:15:40;1.00;1.00;1.00
62778;PMS7003;48821;48.796;2.396;2023-08-21T00:16:53;1.33;1.33;1.00
62778;PMS7003;48821;48.796;2.396;2023-08-21T00:18:04;1.33;1.33;1.00
62778;PMS7003;48821;48.796;2.396;2023-08-21T00:19:17;1.50;1.50;0.67
62778;PMS7003;48821;48.796;2.396;2023-08-21T00:20:31;1.67;1.67;1.50
62778;PMS7003;48821;48.796;2.396;2023-08-21T00:21:44;1.00;1.00;1.00
62778;PMS7003;48821;48.796;2.396;2023-08-21T00:22:57;1.50;1.50;1.50
62778;PMS7003;48821;48.796;2.396;2023-08-21T00:24:08;3.00;1.67;1.00
62778;PMS7003;48821;48.796;2.396;2023-08-21T00:25:20;2.00;1.00;0.67
62778;PMS7003;48821;48.796;2.396;2023-08-21T00:26:34;1.00;0.83;0.33
62778;PMS7003;48821;48.796;2.396;2023-08-21T00:27:44;2.67;2.00;1.00
62778;PMS7003;48821;48.796;2.396;2023-08-21T00:28:55;0.00;0.00;0.00
62778;PMS7003;48821;48.796;2.396;2023-08-21T00:30:09;1.83;1.83;1.00
62778;PMS7003;48821;48.796;2.396;2023-08-21T00:31:22;2.00;1.00;1.00
62778;PMS7003;48821;48.796;2.396;2023-08-21T00:32:35;3.00;1.00;1.00
62778;PMS7003;48821;48.796;2.396;2023-08-21T00:33:49;1.17;1.17;1.00
62778;PMS7003;48821;48.796;2.396;2023-08-21T00:35:02;1.00;1.00;1.00
62778;PMS7003;48821;48.796;2.396;2023-08-21T00:36:15;2.00;1.17;1.17
62778;PMS7003;48821;48.796;2.396;2023-08-21T00:37:29;2.67;1.00;1.00
62778;PMS7003;48821;48.796;2.396;2023-08-21T00:38:39;2.00;2.00;2.00
62778;PMS7003;48821;48.796;2.396;2023-08-21T00:39:52;1.20;1.00;1.00
62778;PMS7003;48821;48.796;2.396;2023-08-21T00:41:05;3.00;1.50;1.00
62778;PMS7003;48821;48.796;2.396;2023-08-21T00:42:15;2.33;2.33;2.00
62778;PMS7003;48821;48.796;2.396;2023-08-21T00:43:27;1.00;1.00;1.00
62778;PMS7003;48821;48.796;2.396;2023-08-21T00:44:40;1.17;1.17;1.00
62778;PMS7003;48821;48.796;2.396;2023-08-21T00:45:50;2.67;2.00;1.00
62778;PMS7003;48821;48.796;2.396;2023-08-21T00:47:01;4.67;1.33;1.33
62778;PMS7003;48821;48.796;2.396;2023-08-21T00:48:14;1.00;1.00;1.00
62778;PMS7003;48821;48.796;2.396;2023-08-21T00:49:28;2.00;1.00;1.00
62778;PMS7003;48821;48.796;2.396;2023-08-21T00:50:39;2.33;2.33;1.67
62778;PMS7003;48821;48.796;2.396;2023-08-21T00:51:50;3.00;2.00;1.00
62778;PMS7003;48821;48.796;2.396;2023-08-21T00:53:01;5.00;3.00;3.00
62778;PMS7003;48821;48.796;2.396;2023-08-21T00:54:16;2.00;1.33;1.00
62778;PMS7003;48821;48.796;2.396;2023-08-21T00:55:30;3.83;2.17;1.83
62778;PMS7003;48821;48.796;2.396;2023-08-21T00:56:41;2.67;2.00;1.33
62778;PMS7003;48821;48.796;2.396;2023-08-21T00:57:52;1.00;1.00;0.67
62778;PMS7003;48821;48.796;2.396;2023-08-21T00:59:06;0.00;0.00;0.00
62778;PMS7003;48821;48.796;2.396;2023-08-21T01:00:19;1.00;0.50;0.50
62778;PMS7003;48821;48.796;2.396;2023-08-21T01:01:33;1.50;1.00;1.00
62778;PMS7003;48821;48.796;2.396;2023-08-21T01:02:44;2.67;1.67;1.33
62778;PMS7003;48821;48.796;2.396;2023-08-21T01:03:56;2.00;1.00;1.00
62778;PMS7003;48821;48.796;2.396;2023-08-21T01:05:09;0.17;0.17;0.00
62778;PMS7003;48821;48.796;2.396;2023-08-21T01:06:22;1.00;1.00;1.00
62778;PMS7003;48821;48.796;2.396;2023-08-21T01:07:36;0.50;0.50;0.17
62778;PMS7003;48821;48.796;2.396;2023-08-21T01:09:00;3.00;1.00;1.00
62778;PMS7003;48821;48.796;2.396;2023-08-21T01:10:26;1.00;1.00;1.00
62778;PMS7003;48821;48.796;2.396;2023-08-21T01:16:08;1.17;1.00;0.67
62778;PMS7003;48821;48.796;2.396;2023-08-21T01:17:22;1.67;1.50;1.00
62778;PMS7003;48821;48.796;2.396;2023-08-21T01:18:36;1.50;1.00;1.00
62778;PMS7003;48821;48.796;2.396;2023-08-21T01:19:51;0.17;0.17;0.00
62778;PMS7003;48821;48.796;2.396;2023-08-21T01:21:05;3.00;1.00;1.00
62778;PMS7003;48821;48.796;2.396;2023-08-21T01:22:16;2.33;2.00;1.00
62778;PMS7003;48821;48.796;2.396;2023-08-21T01:23:31;2.33;1.00;0.00
62778;PMS7003;48821;48.796;2.396;2023-08-21T01:24:47;1.00;1.00;0.83
62778;PMS7003;48821;48.796;2.396;2023-08-21T01:26:01;1.67;1.00;1.00
62778;PMS7003;48821;48.796;2.396;2023-08-21T01:27:15;1.17;1.00;0.83
62778;PMS7003;48821;48.796;2.396;2023-08-21T01:28:29;0.83;0.50;0.00
62778;PMS7003;48821;48.796;2.396;2023-08-21T01:29:43;2.00;2.00;1.00
62778;PMS7003;48821;48.796;2.396;2023-08-21T01:31:36;1.00;1.00;1.00
62778;PMS7003;48821;48.796;2.396;2023-08-21T01:32:42;1.00;1.00;0.33
62778;PMS7003;48821;48.796;2.396;2023-08-21T01:33:59;1.00;1.00;0.00
62778;PMS7003;48821;48.796;2.396;2023-08-21T01:35:17;0.67;0.67;0.00
62778;PMS7003;48821;48.796;2.396;2023-08-21T01:36:30;1.00;1.00;1.00
62778;PMS7003;48821;48.796;2.396;2023-08-21T01:37:44;0.00;0.00;0.00
62778;PMS7003;48821;48.796;2.396;2023-08-21T01:38:57;2.33;1.00;0.17
62778;PMS7003;48821;48.796;2.396;2023-08-21T01:40:11;1.00;1.00;0.67
62778;PMS7003;48821;48.796;2.396;2023-08-21T01:41:24;1.00;1.00;1.00
62778;PMS7003;48821;48.796;2.396;2023-08-21T01:42:37;0.50;0.50;0.33
62778;PMS7003;48821;48.796;2.396;2023-08-21T01:43:51;1.00;1.00;1.00
62778;PMS7003;48821;48.796;2.396;2023-08-21T01:45:04;1.83;1.00;1.00
62778;PMS7003;48821;48.796;2.396;2023-08-21T01:46:18;1.00;1.00;1.00
62778;PMS7003;48821;48.796;2.396;2023-08-21T01:47:31;2.50;1.83;1.00
62778;PMS7003;48821;48.796;2.396;2023-08-21T01:48:44;1.67;1.00;0.33
62778;PMS7003;48821;48.796;2.396;2023-08-21T01:49:57;0.83;0.83;0.17
62778;PMS7003;48821;48.796;2.396;2023-08-21T01:51:11;1.00;1.00;1.00
62778;PMS7003;48821;48.796;2.396;2023-08-21T01:52:24;1.00;1.00;0.17
62778;PMS7003;48821;48.796;2.396;2023-08-21T01:53:37;0.00;0.00;0.00
62778;PMS7003;48821;48.796;2.396;2023-08-21T01:54:50;1.17;0.33;0.00
62778;PMS7003;48821;48.796;2.396;2023-08-21T01:56:00;6.33;2.00;1.00
62778;PMS7003;48821;48.796;2.396;2023-08-21T01:57:11;0.00;0.00;0.00
62778;PMS7003;48821;48.796;2.396;2023-08-21T01:58:25;2.83;1.33;1.00
62778;PMS7003;48821;48.796;2.396;2023-08-21T01:59:38;0.83;0.83;0.33
62778;PMS7003;48821;48.796;2.396;2023-08-21T02:00:51;0.00;0.00;0.00
62778;PMS7003;48821;48.796;2.396;2023-08-21T02:02:04;1.50;1.17;0.50
62778;PMS7003;48821;48.796;2.396;2023-08-21T02:03:14;3.67;2.00;1.67
62778;PMS7003;48821;48.796;2.396;2023-08-21T02:04:26;4.00;0.00;0.00
62778;PMS7003;48821;48.796;2.396;2023-08-21T02:05:39;1.00;1.00;1.00
62778;PMS7003;48821;48.796;2.396;2023-08-21T02:06:53;1.00;1.00;0.33
62778;PMS7003;48821;48.796;2.396;2023-08-21T02:08:07;2.67;1.00;0.67
62778;PMS7003;48821;48.796;2.396;2023-08-21T02:09:22;1.00;1.00;1.00
62778;PMS7003;48821;48.796;2.396;2023-08-21T02:10:35;0.83;0.83;0.00
62778;PMS7003;48821;48.796;2.396;2023-08-21T02:11:49;0.83;0.83;0.50
62778;PMS7003;48821;48.796;2.396;2023-08-21T02:13:02;1.83;1.00;1.00
62778;PMS7003;48821;48.796;2.396;2023-08-21T02:14:15;1.67;0.83;0.83
62778;PMS7003;48821;48.796;2.396;2023-08-21T02:15:25;5.00;2.00;1.00
62778;PMS7003;48821;48.796;2.396;2023-08-21T02:16:37;0.00;0.00;0.00
62778;PMS7003;48821;48.796;2.396;2023-08-21T02:17:50;2.00;1.00;0.00
62778;PMS7003;48821;48.796;2.396;2023-08-21T02:19:03;1.83;1.83;1.00
62778;PMS7003;48821;48.796;2.396;2023-08-21T02:20:16;3.33;1.00;1.00
62778;PMS7003;48821;48.796;2.396;2023-08-21T02:21:29;2.00;1.67;1.00
62778;PMS7003;48821;48.796;2.396;2023-08-21T02:22:42;2.17;1.83;1.00
62778;PMS7003;48821;48.796;2.396;2023-08-21T02:23:56;4.00;1.00;0.83
62778;PMS7003;48821;48.796;2.396;2023-08-21T02:25:09;2.67;1.83;1.00
62778;PMS7003;48821;48.796;2.396;2023-08-21T02:26:22;1.00;1.00;1.00
62778;PMS7003;48821;48.796;2.396;2023-08-21T02:27:32;2.67;2.00;1.00
62778;PMS7003;48821;48.796;2.396;2023-08-21T02:28:43;5.00;1.00;1.00
62778;PMS7003;48821;48.796;2.396;2023-08-21T02:29:57;1.00;1.00;1.00
62778;PMS7003;48821;48.796;2.396;2023-08-21T02:31:10;1.83;1.33;1.00
62778;PMS7003;48821;48.796;2.396;2023-08-21T02:32:23;3.50;1.17;1.17
62778;PMS7003;48821;48.796;2.396;2023-08-21T02:33:37;1.50;1.50;1.00
62778;PMS7003;48821;48.796;2.396;2023-08-21T02:34:50;2.67;1.00;1.00
62778;PMS7003;48821;48.796;2.396;2023-08-21T02:36:03;1.83;1.83;1.00
62778;PMS7003;48821;48.796;2.396;2023-08-21T02:37:17;2.17;2.00;1.83
62778;PMS7003;48821;48.796;2.396;2023-08-21T02:38:30;3.00;1.00;0.67
62778;PMS7003;48821;48.796;2.396;2023-08-21T02:39:43;0.67;0.67;0.17
62778;PMS7003;48821;48.796;2.396;2023-08-21T02:40:56;1.67;1.67;1.00
62778;PMS7003;48821;48.796;2.396;2023-08-21T02:42:10;1.83;1.83;1.00
62778;PMS7003;48821;48.796;2.396;2023-08-21T02:43:20;2.00;2.00;1.00
62778;PMS7003;48821;48.796;2.396;2023-08-21T02:44:34;1.50;1.50;1.00
62778;PMS7003;48821;48.796;2.396;2023-08-21T02:45:47;1.50;1.50;1.00
62778;PMS7003;48821;48.796;2.396;2023-08-21T02:47:00;1.83;1.00;1.00
62778;PMS7003;48821;48.796;2.396;2023-08-21T02:48:13;1.67;1.00;1.00
62778;PMS7003;48821;48.796;2.396;2023-08-21T02:49:24;3.33;2.00;1.00
62778;PMS7003;48821;48.796;2.396;2023-08-21T02:50:35;1.00;1.00;1.00
62778;PMS7003;48821;48.796;2.396;2023-08-21T02:51:48;2.83;1.50;1.33
62778;PMS7003;48821;48.796;2.396;2023-08-21T02:53:01;0.33;0.33;0.33
62778;PMS7003;48821;48.796;2.396;2023-08-21T02:54:14;2.00;2.00;1.00
62778;PMS7003;48821;48.796;2.396;2023-08-21T02:55:25;3.00;2.00;1.00
62778;PMS7003;48821;48.796;2.396;2023-08-21T02:56:36;1.00;1.00;1.00
62778;PMS7003;48821;48.796;2.396;2023-08-21T02:57:49;1.33;0.00;0.00
62778;PMS7003;48821;48.796;2.396;2023-08-21T02:59:02;0.67;0.67;0.67
62778;PMS7003;48821;48.796;2.396;2023-08-21T03:00:15;3.00;1.00;0.83
62778;PMS7003;48821;48.796;2.396;2023-08-21T03:01:29;3.17;1.00;1.00
62778;PMS7003;48821;48.796;2.396;2023-08-21T03:02:42;1.50;1.50;1.17
62778;PMS7003;48821;48.796;2.396;2023-08-21T03:03:56;1.00;1.00;0.33
62778;PMS7003;48821;48.796;2.396;2023-08-21T03:05:06;2.67;2.00;1.00
62778;PMS7003;48821;48.796;2.396;2023-08-21T03:06:19;3.00;2.00;2.00
62778;PMS7003;48821;48.796;2.396;2023-08-21T03:07:30;1.33;1.00;1.00
62778;PMS7003;48821;48.796;2.396;2023-08-21T03:08:43;1.67;1.17;1.00
62778;PMS7003;48821;48.796;2.396;2023-08-21T03:09:54;3.33;1.67;1.00
62778;PMS7003;48821;48.796;2.396;2023-08-21T03:11:05;1.67;1.67;1.00
62778;PMS7003;48821;48.796;2.396;2023-08-21T03:12:18;1.67;1.00;1.00
62778;PMS7003;48821;48.796;2.396;2023-08-21T03:13:31;1.83;0.67;0.50
62778;PMS7003;48821;48.796;2.396;2023-08-21T03:14:45;4.67;2.00;1.00
62778;PMS7003;48821;48.796;2.396;2023-08-21T03:15:59;1.00;1.00;1.00
62778;PMS7003;48821;48.796;2.396;2023-08-21T03:17:09;3.00;3.00;2.00
62778;PMS7003;48821;48.796;2.396;2023-08-21T03:18:20;2.33;1.67;1.00
62778;PMS7003;48821;48.796;2.396;2023-08-21T03:19:33;1.50;1.33;1.00
62778;PMS7003;48821;48.796;2.396;2023-08-21T03:20:46;1.00;1.00;1.00
62778;PMS7003;48821;48.796;2.396;2023-08-21T03:22:00;2.67;1.00;1.00
62778;PMS7003;48821;48.796;2.396;2023-08-21T03:23:13;2.00;2.00;1.00
62778;PMS7003;48821;48.796;2.396;2023-08-21T03:24:24;3.67;1.00;1.00
62778;PMS7003;48821;48.796;2.396;2023-08-21T03:25:35;4.67;2.00;1.33
62778;PMS7003;48821;48.796;2.396;2023-08-21T03:26:47;2.25;2.25;2.00
62778;PMS7003;48821;48.796;2.396;2023-08-21T03:28:00;1.00;1.00;1.00
62778;PMS7003;48821;48.796;2.396;2023-08-21T03:29:11;1.67;1.00;1.00
62778;PMS7003;48821;48.796;2.396;2023-08-21T03:30:22;2.00;2.00;2.00
62778;PMS7003;48821;48.796;2.396;2023-08-21T03:31:32;3.00;2.00;1.00
62778;PMS7003;48821;48.796;2.396;2023-08-21T03:32:44;2.50;2.50;2.00
62778;PMS7003;48821;48.796;2.396;2023-08-21T03:33:58;1.50;1.50;1.33
62778;PMS7003;48821;48.796;2.396;2023-08-21T03:35:08;2.67;2.00;2.00
62778;PMS7003;48821;48.796;2.396;2023-08-21T03:36:19;3.00;2.00;2.00
62778;PMS7003;48821;48.796;2.396;2023-08-21T03:37:30;5.00;3.00;2.67
62778;PMS7003;48821;48.796;2.396;2023-08-21T03:38:41;4.00;4.00;3.00
62778;PMS7003;48821;48.796;2.396;2023-08-21T03:39:52;3.00;2.67;1.67
62778;PMS7003;48821;48.796;2.396;2023-08-21T03:41:03;4.00;4.00;3.00
62778;PMS7003;48821;48.796;2.396;2023-08-21T03:42:15;8.33;4.00;3.67
62778;PMS7003;48821;48.796;2.396;2023-08-21T03:43:26;7.00;3.00;2.67
62778;PMS7003;48821;48.796;2.396;2023-08-21T03:44:37;4.00;4.00;3.00
62778;PMS7003;48821;48.796;2.396;2023-08-21T03:45:48;4.67;4.67;3.00
62778;PMS7003;48821;48.796;2.396;2023-08-21T03:46:59;7.00;5.00;4.00
62778;PMS7003;48821;48.796;2.396;2023-08-21T03:48:10;4.00;4.00;3.67
62778;PMS7003;48821;48.796;2.396;2023-08-21T03:49:21;3.33;3.33;3.00
62778;PMS7003;48821;48.796;2.396;2023-08-21T03:50:31;3.67;3.00;2.00
62778;PMS7003;48821;48.796;2.396;2023-08-21T03:51:42;4.00;4.00;3.00
62778;PMS7003;48821;48.796;2.396;2023-08-21T03:52:53;4.67;4.00;3.00
62778;PMS7003;48821;48.796;2.396;2023-08-21T03:54:04;6.67;5.33;4.00
62778;PMS7003;48821;48.796;2.396;2023-08-21T03:55:15;5.00;5.00;4.00
62778;PMS7003;48821;48.796;2.396;2023-08-21T03:56:26;3.67;3.33;3.33
62778;PMS7003;48821;48.796;2.396;2023-08-21T03:57:38;2.00;0.00;0.00
62778;PMS7003;48821;48.796;2.396;2023-08-21T03:58:51;1.17;1.17;1.00
62778;PMS7003;48821;48.796;2.396;2023-08-21T04:00:05;1.50;1.50;0.33
62778;PMS7003;48821;48.796;2.396;2023-08-21T04:01:17;6.67;6.33;4.33
62778;PMS7003;48821;48.796;2.396;2023-08-21T04:02:28;6.00;5.00;4.00
62778;PMS7003;48821;48.796;2.396;2023-08-21T04:03:40;5.00;5.00;4.00
62778;PMS7003;48821;48.796;2.396;2023-08-21T04:04:51;4.00;4.00;3.00
62778;PMS7003;48821;48.796;2.396;2023-08-21T04:06:02;7.00;5.00;4.00
62778;PMS7003;48821;48.796;2.396;2023-08-21T04:07:13;7.00;6.00;5.00
62778;PMS7003;48821;48.796;2.396;2023-08-21T04:08:24;6.00;5.67;4.33
62778;PMS7003;48821;48.796;2.396;2023-08-21T04:09:35;4.00;3.00;2.00
62778;PMS7003;48821;48.796;2.396;2023-08-21T04:10:46;4.00;4.00;3.00
62778;PMS7003;48821;48.796;2.396;2023-08-21T04:11:57;6.00;6.00;4.33
62778;PMS7003;48821;48.796;2.396;2023-08-21T04:13:07;6.00;6.00;5.00
62778;PMS7003;48821;48.796;2.396;2023-08-21T04:14:18;5.67;5.00;3.67
62778;PMS7003;48821;48.796;2.396;2023-08-21T04:15:29;5.00;5.00;3.00
62778;PMS7003;48821;48.796;2.396;2023-08-21T04:16:41;6.00;6.00;5.00
62778;PMS7003;48821;48.796;2.396;2023-08-21T04:17:52;7.33;4.33;4.00
62778;PMS7003;48821;48.796;2.396;2023-08-21T04:19:02;4.33;4.33;3.67
62778;PMS7003;48821;48.796;2.396;2023-08-21T04:20:13;5.00;5.00;4.00
62778;PMS7003;48821;48.796;2.396;2023-08-21T04:21:24;7.67;4.00;4.00
62778;PMS7003;48821;48.796;2.396;2023-08-21T04:22:35;4.67;4.67;3.67
62778;PMS7003;48821;48.796;2.396;2023-08-21T04:23:46;6.33;5.33;5.00
62778;PMS7003;48821;48.796;2.396;2023-08-21T04:24:57;6.00;3.00;3.00
62778;PMS7003;48821;48.796;2.396;2023-08-21T04:26:07;6.00;4.33;3.00
62778;PMS7003;48821;48.796;2.396;2023-08-21T04:27:18;7.00;4.00;3.00
62778;PMS7003;48821;48.796;2.396;2023-08-21T04:28:33;8.67;3.33;3.33
62778;PMS7003;48821;48.796;2.396;2023-08-21T04:29:43;5.00;4.00;3.00
62778;PMS7003;48821;48.796;2.396;2023-08-21T04:30:54;4.33;4.33;4.00
62778;PMS7003;48821;48.796;2.396;2023-08-21T04:32:07;7.67;4.33;4.00
62778;PMS7003;48821;48.796;2.396;2023-08-21T04:33:18;6.33;3.33;3.00
62778;PMS7003;48821;48.796;2.396;2023-08-21T04:34:29;5.33;4.33;3.33
62778;PMS7003;48821;48.796;2.396;2023-08-21T04:35:40;3.33;3.00;3.00
62778;PMS7003;48821;48.796;2.396;2023-08-21T04:36:52;4.00;4.00;3.00
62778;PMS7003;48821;48.796;2.396;2023-08-21T04:38:02;4.00;3.33;3.33
62778;PMS7003;48821;48.796;2.396;2023-08-21T04:39:14;3.50;2.25;2.00
62778;PMS7003;48821;48.796;2.396;2023-08-21T04:40:24;3.67;3.67;3.00
62778;PMS7003;48821;48.796;2.396;2023-08-21T04:41:35;4.00;4.00;3.00
62778;PMS7003;48821;48.796;2.396;2023-08-21T04:42:46;3.33;3.00;2.00
62778;PMS7003;48821;48.796;2.396;2023-08-21T04:43:57;3.67;3.00;3.00
62778;PMS7003;48821;48.796;2.396;2023-08-21T04:45:08;4.00;4.00;3.33
62778;PMS7003;48821;48.796;2.396;2023-08-21T04:46:19;3.00;3.00;3.00
62778;PMS7003;48821;48.796;2.396;2023-08-21T04:47:30;4.00;4.00;3.00
62778;PMS7003;48821;48.796;2.396;2023-08-21T04:48:41;4.67;3.00;3.00
62778;PMS7003;48821;48.796;2.396;2023-08-21T04:49:52;6.00;4.33;3.00
62778;PMS7003;48821;48.796;2.396;2023-08-21T04:51:03;3.67;3.00;2.00
62778;PMS7003;48821;48.796;2.396;2023-08-21T04:52:14;4.67;3.00;2.67
62778;PMS7003;48821;48.796;2.396;2023-08-21T04:53:24;5.33;2.33;2.33
62778;PMS7003;48821;48.796;2.396;2023-08-21T04:54:35;3.33;3.33;2.00
62778;PMS7003;48821;48.796;2.396;2023-08-21T04:55:46;2.67;2.67;2.00
62778;PMS7003;48821;48.796;2.396;2023-08-21T04:56:57;5.00;4.00;2.33
62778;PMS7003;48821;48.796;2.396;2023-08-21T04:58:08;3.33;2.00;2.00
62778;PMS7003;48821;48.796;2.396;2023-08-21T04:59:19;3.00;2.00;1.00
62778;PMS7003;48821;48.796;2.396;2023-08-21T05:00:30;4.67;3.33;2.33
62778;PMS7003;48821;48.796;2.396;2023-08-21T05:01:41;4.00;2.33;2.00
62778;PMS7003;48821;48.796;2.396;2023-08-21T05:02:52;1.67;1.67;1.00
62778;PMS7003;48821;48.796;2.396;2023-08-21T05:04:03;2.25;1.50;1.00
62778;PMS7003;48821;48.796;2.396;2023-08-21T05:05:14;4.00;3.00;3.00
62778;PMS7003;48821;48.796;2.396;2023-08-21T05:06:25;5.67;3.00;2.00
62778;PMS7003;48821;48.796;2.396;2023-08-21T05:07:36;1.75;1.75;1.50
62778;PMS7003;48821;48.796;2.396;2023-08-21T05:08:50;5.50;2.83;2.50
62778;PMS7003;48821;48.796;2.396;2023-08-21T05:10:03;3.17;2.83;2.00
62778;PMS7003;48821;48.796;2.396;2023-08-21T05:11:14;2.00;2.00;2.00
62778;PMS7003;48821;48.796;2.396;2023-08-21T05:12:25;2.67;2.67;1.00
62778;PMS7003;48821;48.796;2.396;2023-08-21T05:13:36;4.67;2.00;2.00
62778;PMS7003;48821;48.796;2.396;2023-08-21T05:14:47;2.00;1.00;1.00
62778;PMS7003;48821;48.796;2.396;2023-08-21T05:15:57;2.33;2.00;1.33
62778;PMS7003;48821;48.796;2.396;2023-08-21T05:17:10;1.60;1.60;1.00
62778;PMS7003;48821;48.796;2.396;2023-08-21T05:18:23;2.00;2.00;1.33
62778;PMS7003;48821;48.796;2.396;2023-08-21T05:19:34;3.67;3.33;2.67
62778;PMS7003;48821;48.796;2.396;2023-08-21T05:20:46;3.00;3.00;2.00
62778;PMS7003;48821;48.796;2.396;2023-08-21T05:21:57;3.00;2.00;2.00
62778;PMS7003;48821;48.796;2.396;2023-08-21T05:23:08;2.00;2.00;2.00
62778;PMS7003;48821;48.796;2.396;2023-08-21T05:24:19;1.00;1.00;1.00
62778;PMS7003;48821;48.796;2.396;2023-08-21T05:25:32;1.50;1.50;1.00
62778;PMS7003;48821;48.796;2.396;2023-08-21T05:26:45;3.33;1.50;0.67
62778;PMS7003;48821;48.796;2.396;2023-08-21T05:27:59;1.33;1.33;1.17
62778;PMS7003;48821;48.796;2.396;2023-08-21T05:29:12;1.17;1.17;1.00
62778;PMS7003;48821;48.796;2.396;2023-08-21T05:30:22;2.33;2.33;2.33
62778;PMS7003;48821;48.796;2.396;2023-08-21T05:31:33;2.00;2.00;2.00
62778;PMS7003;48821;48.796;2.396;2023-08-21T05:32:44;3.00;2.00;1.00
62778;PMS7003;48821;48.796;2.396;2023-08-21T05:33:58;1.17;1.17;1.00
62778;PMS7003;48821;48.796;2.396;2023-08-21T05:35:11;0.83;0.83;0.67
62778;PMS7003;48821;48.796;2.396;2023-08-21T05:36:24;2.33;1.67;1.33
62778;PMS7003;48821;48.796;2.396;2023-08-21T05:37:35;2.00;1.00;1.00
62778;PMS7003;48821;48.796;2.396;2023-08-21T05:38:46;6.00;2.00;1.00
62778;PMS7003;48821;48.796;2.396;2023-08-21T05:39:58;3.00;2.00;1.00
62778;PMS7003;48821;48.796;2.396;2023-08-21T05:41:09;1.00;1.00;1.00
62778;PMS7003;48821;48.796;2.396;2023-08-21T05:42:23;2.00;1.00;1.00
62778;PMS7003;48821;48.796;2.396;2023-08-21T05:43:36;1.00;1.00;0.83
62778;PMS7003;48821;48.796;2.396;2023-08-21T05:44:49;1.17;1.00;1.00
62778;PMS7003;48821;48.796;2.396;2023-08-21T05:46:05;2.00;1.00;0.67
62778;PMS7003;48821;48.796;2.396;2023-08-21T05:47:19;1.50;1.50;1.50
62778;PMS7003;48821;48.796;2.396;2023-08-21T05:48:32;1.33;1.00;0.00
62778;PMS7003;48821;48.796;2.396;2023-08-21T05:49:45;1.67;1.00;1.00
62778;PMS7003;48821;48.796;2.396;2023-08-21T05:51:00;2.50;2.00;1.00
62778;PMS7003;48821;48.796;2.396;2023-08-21T05:52:13;1.33;1.00;1.00
62778;PMS7003;48821;48.796;2.396;2023-08-21T05:53:24;2.00;2.00;1.00
62778;PMS7003;48821;48.796;2.396;2023-08-21T05:54:35;2.00;0.00;0.00
62778;PMS7003;48821;48.796;2.396;2023-08-21T05:55:45;2.33;2.33;1.00
62778;PMS7003;48821;48.796;2.396;2023-08-21T05:56:56;1.00;1.00;1.00
62778;PMS7003;48821;48.796;2.396;2023-08-21T05:58:09;2.00;0.83;0.33
62778;PMS7003;48821;48.796;2.396;2023-08-21T05:59:26;1.00;1.00;0.50
62778;PMS7003;48821;48.796;2.396;2023-08-21T06:00:43;3.17;1.33;1.00
62778;PMS7003;48821;48.796;2.396;2023-08-21T06:01:57;1.33;1.00;0.67
62778;PMS7003;48821;48.796;2.396;2023-08-21T06:03:10;2.17;1.00;1.00
62778;PMS7003;48821;48.796;2.396;2023-08-21T06:04:24;1.00;1.00;1.00
62778;PMS7003;48821;48.796;2.396;2023-08-21T06:05:34;1.00;1.00;1.00
62778;PMS7003;48821;48.796;2.396;2023-08-21T06:06:45;0.67;0.67;0.67
62778;PMS7003;48821;48.796;2.396;2023-08-21T06:07:58;3.00;1.33;1.17
62778;PMS7003;48821;48.796;2.396;2023-08-21T06:09:12;1.00;1.00;1.00
62778;PMS7003;48821;48.796;2.396;2023-08-21T06:10:25;1.00;1.00;1.00
62778;PMS7003;48821;48.796;2.396;2023-08-21T06:11:38;1.67;1.17;0.83
62778;PMS7003;48821;48.796;2.396;2023-08-21T06:12:51;2.00;1.00;1.00
62778;PMS7003;48821;48.796;2.396;2023-08-21T06:14:04;1.50;0.50;0.00
62778;PMS7003;48821;48.796;2.396;2023-08-21T06:15:18;0.00;0.00;0.00
62778;PMS7003;48821;48.796;2.396;2023-08-21T06:16:31;1.67;1.00;1.00
62778;PMS7003;48821;48.796;2.396;2023-08-21T06:17:44;1.00;1.00;0.83
62778;PMS7003;48821;48.796;2.396;2023-08-21T06:18:57;1.00;1.00;1.00
62778;PMS7003;48821;48.796;2.396;2023-08-21T06:20:10;2.00;1.00;1.00
62778;PMS7003;48821;48.796;2.396;2023-08-21T06:21:24;0.50;0.17;0.17
62778;PMS7003;48821;48.796;2.396;2023-08-21T06:22:37;2.00;1.00;1.00
62778;PMS7003;48821;48.796;2.396;2023-08-21T06:23:50;1.00;1.00;1.00
62778;PMS7003;48821;48.796;2.396;2023-08-21T06:25:04;0.17;0.17;0.17
62778;PMS7003;48821;48.796;2.396;2023-08-21T06:26:17;5.83;1.00;1.00
62778;PMS7003;48821;48.796;2.396;2023-08-21T06:27:31;0.67;0.67;0.67
62778;PMS7003;48821;48.796;2.396;2023-08-21T06:28:44;1.00;1.00;1.00
62778;PMS7003;48821;48.796;2.396;2023-08-21T06:29:57;2.50;1.00;1.00
62778;PMS7003;48821;48.796;2.396;2023-08-21T06:31:10;1.00;1.00;1.00
62778;PMS7003;48821;48.796;2.396;2023-08-21T06:32:23;3.50;0.50;0.50
62778;PMS7003;48821;48.796;2.396;2023-08-21T06:33:37;1.33;1.33;1.17
62778;PMS7003;48821;48.796;2.396;2023-08-21T06:34:50;1.33;1.33;1.00
62778;PMS7003;48821;48.796;2.396;2023-08-21T06:36:04;0.83;0.83;0.67
62778;PMS7003;48821;48.796;2.396;2023-08-21T06:37:17;1.00;1.00;1.00
62778;PMS7003;48821;48.796;2.396;2023-08-21T06:38:30;1.67;1.00;0.00
62778;PMS7003;48821;48.796;2.396;2023-08-21T06:39:43;1.00;1.00;1.00
62778;PMS7003;48821;48.796;2.396;2023-08-21T06:40:56;1.00;1.00;1.00
62778;PMS7003;48821;48.796;2.396;2023-08-21T06:42:10;1.00;1.00;0.17
62778;PMS7003;48821;48.796;2.396;2023-08-21T06:43:23;1.83;1.00;1.00
62778;PMS7003;48821;48.796;2.396;2023-08-21T06:44:36;0.17;0.17;0.00
62778;PMS7003;48821;48.796;2.396;2023-08-21T06:45:49;2.50;1.00;1.00
62778;PMS7003;48821;48.796;2.396;2023-08-21T06:47:02;2.83;1.00;1.00
62778;PMS7003;48821;48.796;2.396;2023-08-21T06:48:15;1.00;1.00;1.00
62778;PMS7003;48821;48.796;2.396;2023-08-21T06:49:29;1.00;1.00;0.83
62778;PMS7003;48821;48.796;2.396;2023-08-21T06:50:42;0.83;0.83;0.33
62778;PMS7003;48821;48.796;2.396;2023-08-21T06:51:55;2.67;0.00;0.00
62778;PMS7003;48821;48.796;2.396;2023-08-21T13:02:30;2.00;2.00;2.00
62778;PMS7003;48821;48.796;2.396;2023-08-21T13:03:44;1.33;1.33;1.00
62778;PMS7003;48821;48.796;2.396;2023-08-21T13:04:56;4.00;3.00;2.00
62778;PMS7003;48821;48.796;2.396;2023-08-21T13:06:07;1.00;1.00;1.00
62778;PMS7003;48821;48.796;2.396;2023-08-21T13:07:20;3.00;3.00;2.00
62778;PMS7003;48821;48.796;2.396;2023-08-21T13:08:33;4.50;2.00;2.00
62778;PMS7003;48821;48.796;2.396;2023-08-21T13:09:44;5.33;2.00;1.67
62778;PMS7003;48821;48.796;2.396;2023-08-21T13:10:55;2.00;2.00;2.00
62778;PMS7003;48821;48.796;2.396;2023-08-21T13:12:06;2.00;2.00;1.00
62778;PMS7003;48821;48.796;2.396;2023-08-21T13:13:21;1.00;1.00;1.00
62778;PMS7003;48821;48.796;2.396;2023-08-21T13:14:31;2.67;2.67;2.00
62778;PMS7003;48821;48.796;2.396;2023-08-21T13:15:42;3.00;2.00;2.00
62778;PMS7003;48821;48.796;2.396;2023-08-21T13:16:56;2.00;2.00;1.67
62778;PMS7003;48821;48.796;2.396;2023-08-21T13:18:07;1.00;1.00;1.00